Time;durP1;ratioP1;P1;durP2;ratioP2;P2;SDS_P1;SDS_P2;PMS_P1;PMS_P2;Temp;Humidity;BMP_temperature;BMP_pressure;BME280_temperature;BME280_humidity;BME280_pressure;Samples;Min_cycle;Max_cycle;Signal;HPM_P1;HPM_P2
2021/05/27 00:01:35;;;;;;;2.53;1.20;;;;;;;11.97;72.49;99324.28;5116958;28;20044;-46
2021/05/27 00:04:00;;;;;;;1.25;0.93;;;;;;;11.89;72.61;99327.19;5116555;28;20051;-46
2021/05/27 00:06:26;;;;;;;1.75;0.85;;;;;;;11.95;72.34;99328.72;5115973;28;20506;-46
2021/05/27 00:08:52;;;;;;;2.50;1.15;;;;;;;11.95;72.62;99329.59;5116883;28;20135;-46
2021/05/27 00:11:18;;;;;;;2.08;1.00;;;;;;;11.96;72.38;99333.06;5116878;28;20040;-46
2021/05/27 00:13:43;;;;;;;5.22;1.30;;;;;;;11.95;72.66;99334.81;5116750;28;20052;-46
2021/05/27 00:16:09;;;;;;;3.08;0.90;;;;;;;11.96;72.26;99341.81;5117124;28;20453;-46
2021/05/27 00:18:35;;;;;;;3.47;0.63;;;;;;;11.95;72.77;99333.97;5117288;28;20122;-46
2021/05/27 00:21:01;;;;;;;2.53;0.98;;;;;;;12.00;72.17;99343.41;5116952;28;20058;-46
2021/05/27 00:24:05;;;;;;;1.88;0.80;;;;;;;12.01;71.75;99329.34;5115920;28;20420;-46
2021/05/27 00:26:30;;;;;;;2.97;1.00;;;;;;;11.98;71.99;99334.72;5116633;28;20043;-46
2021/05/27 00:28:57;;;;;;;2.50;0.85;;;;;;;12.01;71.76;99342.47;5116001;28;20048;-46
2021/05/27 00:31:23;;;;;;;1.73;0.95;;;;;;;12.04;71.72;99337.09;5116865;28;20104;-46
2021/05/27 00:33:48;;;;;;;1.02;0.70;;;;;;;12.03;71.45;99327.53;5115672;28;20039;-46
2021/05/27 00:36:14;;;;;;;1.45;1.25;;;;;;;12.09;71.64;99329.94;5116237;28;20063;-46
2021/05/27 00:38:40;;;;;;;7.20;0.95;;;;;;;12.10;71.51;99318.50;5116719;28;20047;-46
2021/05/27 00:41:06;;;;;;;1.70;0.70;;;;;;;12.10;71.20;99329.00;5116737;28;20392;-46
2021/05/27 00:43:32;;;;;;;4.78;0.90;;;;;;;12.08;71.34;99317.69;5116704;28;20573;-46
2021/05/27 00:45:58;;;;;;;1.95;0.57;;;;;;;12.09;71.41;99321.16;5116694;28;20044;-46
2021/05/27 00:51:08;;;;;;;1.90;0.80;;;;;;;12.07;71.55;99309.88;5117160;28;20074;-46
2021/05/27 00:53:34;;;;;;;2.25;1.15;;;;;;;12.07;71.56;99318.63;5116309;28;20438;-46
2021/05/27 00:56:00;;;;;;;2.75;0.85;;;;;;;11.98;71.57;99310.25;5098752;28;20055;-46
2021/05/27 00:58:26;;;;;;;3.10;0.90;;;;;;;12.03;71.36;99309.16;5081784;28;20449;-46
2021/05/27 01:00:51;;;;;;;2.05;1.25;;;;;;;12.06;71.23;99310.81;5081651;28;20047;-46
2021/05/27 01:03:18;;;;;;;1.17;0.70;;;;;;;11.99;71.20;99317.19;5116505;28;20055;-46
2021/05/27 01:05:44;;;;;;;1.67;0.68;;;;;;;11.99;71.59;99320.69;5115351;28;20059;-46
2021/05/27 01:08:10;;;;;;;2.55;1.30;;;;;;;11.96;71.65;99315.56;5115467;28;20055;-46
2021/05/27 01:10:37;;;;;;;2.80;0.85;;;;;;;11.96;71.42;99318.19;5098841;28;20044;-46
2021/05/27 01:13:04;;;;;;;2.55;1.13;;;;;;;11.97;71.58;99325.13;5115333;28;20104;-46
2021/05/27 01:15:36;;;;;;;2.67;1.08;;;;;;;11.96;71.25;99318.19;5116081;28;20047;-46
2021/05/27 01:18:13;;;;;;;1.83;1.00;;;;;;;11.97;71.42;99319.88;5115240;28;20054;-46
2021/05/27 01:20:51;;;;;;;3.03;1.27;;;;;;;11.95;71.65;99320.84;5098923;28;20113;-46
2021/05/27 01:23:17;;;;;;;1.55;1.02;;;;;;;11.90;71.89;99323.66;5116045;28;20067;-46
2021/05/27 01:25:49;;;;;;;1.10;0.80;;;;;;;11.92;71.91;99325.28;5116359;28;20040;-46
2021/05/27 01:28:15;;;;;;;2.58;1.10;;;;;;;11.91;71.98;99331.47;5115476;28;20143;-46
2021/05/27 01:30:41;;;;;;;2.70;0.98;;;;;;;11.93;72.08;99324.41;5116285;28;20369;-46
2021/05/27 01:33:18;;;;;;;4.18;0.80;;;;;;;11.95;72.06;99328.72;5083533;28;20135;-46
2021/05/27 01:35:45;;;;;;;2.95;1.08;;;;;;;12.00;72.18;99332.91;5117639;28;20438;-46
2021/05/27 01:38:21;;;;;;;2.20;1.10;;;;;;;12.08;71.73;99337.84;5119192;28;20052;-46
2021/05/27 01:40:48;;;;;;;2.28;1.10;;;;;;;12.04;72.03;99341.50;5120610;28;20039;-46
2021/05/27 01:43:15;;;;;;;2.13;0.90;;;;;;;12.07;72.11;99341.38;5119114;28;20075;-46
2021/05/27 01:45:42;;;;;;;2.47;0.98;;;;;;;12.11;71.90;99337.72;5118607;28;20184;-46
2021/05/27 01:48:08;;;;;;;4.13;0.98;;;;;;;12.09;72.28;99337.81;5119638;28;20040;-46
2021/05/27 01:50:34;;;;;;;1.42;0.70;;;;;;;12.11;72.03;99332.47;5118538;28;20453;-46
2021/05/27 01:53:03;;;;;;;2.33;0.77;;;;;;;12.18;72.07;99335.72;5118835;28;20059;-46
2021/05/27 01:55:30;;;;;;;4.60;1.00;;;;;;;12.21;71.84;99333.81;5101678;28;20051;-46
2021/05/27 01:57:57;;;;;;;0.68;0.60;;;;;;;12.20;71.65;99337.38;5118442;28;20044;-46
2021/05/27 02:00:25;;;;;;;1.33;0.73;;;;;;;12.22;71.71;99339.91;5118747;28;20123;-46
2021/05/27 02:02:54;;;;;;;0.52;0.50;;;;;;;12.23;71.60;99347.75;5119358;28;20043;-46
2021/05/27 02:05:24;;;;;;;1.13;0.70;;;;;;;12.26;71.70;99341.53;5118926;28;20104;-46
2021/05/27 02:07:50;;;;;;;4.95;0.88;;;;;;;12.27;71.51;99346.72;5084974;28;20138;-46
2021/05/27 02:10:25;;;;;;;1.75;0.93;;;;;;;12.29;71.61;99344.91;5118612;28;20112;-46
2021/05/27 02:12:53;;;;;;;1.15;0.68;;;;;;;12.33;71.38;99346.47;5118176;28;20058;-46
2021/05/27 02:15:20;;;;;;;1.52;0.70;;;;;;;12.33;71.26;99348.25;5101465;28;20059;-46
2021/05/27 02:17:46;;;;;;;4.90;0.80;;;;;;;12.34;71.47;99353.44;5118167;28;20111;-46
2021/05/27 02:20:12;;;;;;;1.63;0.68;;;;;;;12.32;71.51;99352.66;5119192;28;20047;-46
2021/05/27 02:22:37;;;;;;;1.48;0.80;;;;;;;12.31;71.36;99350.91;5118216;28;20052;-46
2021/05/27 02:25:17;;;;;;;1.80;0.88;;;;;;;12.30;71.49;99367.59;5119161;28;20068;-46
2021/05/27 02:27:46;;;;;;;1.95;0.98;;;;;;;12.29;71.65;99362.44;5118789;28;20042;-46
2021/05/27 02:30:15;;;;;;;1.10;0.70;;;;;;;12.31;71.49;99360.56;5118187;28;20432;-46
2021/05/27 02:32:42;;;;;;;2.03;0.68;;;;;;;12.32;71.33;99365.78;5118109;28;20048;-46
2021/05/27 02:35:09;;;;;;;1.75;1.10;;;;;;;12.32;71.03;99371.03;5118867;27;20353;-46
2021/05/27 02:37:35;;;;;;;1.50;0.70;;;;;;;12.32;71.05;99373.66;5118492;28;20059;-46
2021/05/27 02:40:04;;;;;;;3.55;0.80;;;;;;;12.34;71.17;99374.44;5117687;28;20062;-46
2021/05/27 02:42:32;;;;;;;1.60;0.60;;;;;;;12.34;71.32;99373.59;5118815;28;20188;-46
2021/05/27 02:44:58;;;;;;;2.20;1.00;;;;;;;12.36;71.12;99374.41;5117881;28;20044;-46
2021/05/27 02:47:25;;;;;;;1.88;0.95;;;;;;;12.36;71.12;99372.63;5100217;28;20040;-46
2021/05/27 02:49:51;;;;;;;1.23;0.73;;;;;;;12.32;71.17;99372.81;5118980;28;20126;-46
2021/05/27 02:52:18;;;;;;;2.25;0.82;;;;;;;12.34;71.31;99374.44;5118663;28;20092;-46
2021/05/27 02:54:44;;;;;;;3.67;1.15;;;;;;;12.34;71.04;99370.97;5117630;28;20051;-46
2021/05/27 02:57:10;;;;;;;1.65;0.70;;;;;;;12.32;71.06;99380.69;5118132;28;20464;-46
2021/05/27 02:59:37;;;;;;;2.85;1.25;;;;;;;12.40;70.65;99382.06;5117893;28;20046;-46
2021/05/27 03:02:04;;;;;;;1.55;0.82;;;;;;;12.36;70.64;99377.88;5117841;28;20042;-46
2021/05/27 03:04:34;;;;;;;5.78;1.15;;;;;;;12.43;70.78;99375.00;5117517;28;20048;-46
2021/05/27 03:07:00;;;;;;;4.32;1.38;;;;;;;12.49;70.58;99375.63;5118297;28;20134;-46
2021/05/27 03:09:27;;;;;;;1.35;0.98;;;;;;;12.55;70.00;99371.91;5117151;28;20062;-46
2021/05/27 03:11:53;;;;;;;2.05;1.08;;;;;;;12.55;70.32;99385.88;5118006;28;20429;-46
2021/05/27 03:14:20;;;;;;;2.83;1.00;;;;;;;12.60;69.94;99388.31;5118086;28;20128;-46
2021/05/27 03:16:53;;;;;;;2.45;0.90;;;;;;;12.62;69.72;99395.22;5101455;28;20047;-46
2021/05/27 03:19:20;;;;;;;1.35;0.77;;;;;;;12.70;69.85;99394.91;5117213;28;20043;-46
2021/05/27 03:21:47;;;;;;;2.17;1.27;;;;;;;12.72;69.57;99400.13;5117141;28;20080;-46
2021/05/27 03:24:15;;;;;;;2.78;0.70;;;;;;;12.78;69.27;99394.63;5117058;28;20073;-46
2021/05/27 03:26:41;;;;;;;0.85;0.68;;;;;;;12.78;69.44;99400.72;5117086;28;20050;-46
2021/05/27 03:29:10;;;;;;;1.27;0.80;;;;;;;12.80;69.50;99403.28;5118482;28;20055;-46
2021/05/27 03:31:38;;;;;;;1.98;1.02;;;;;;;12.84;69.51;99408.38;5117481;28;20078;-46
2021/05/27 03:34:06;;;;;;;2.25;0.90;;;;;;;12.86;69.37;99411.75;5116610;28;20047;-46
2021/05/27 03:36:32;;;;;;;2.28;0.88;;;;;;;12.86;69.40;99413.53;5116463;28;20067;-46
2021/05/27 03:38:58;;;;;;;2.55;0.80;;;;;;;12.93;69.17;99425.50;5117415;28;20047;-46
2021/05/27 03:41:24;;;;;;;2.95;0.82;;;;;;;12.95;68.68;99435.97;5117613;28;20180;-46
2021/05/27 03:43:53;;;;;;;2.05;0.80;;;;;;;12.97;68.73;99434.16;5116723;28;20502;-46
2021/05/27 03:46:19;;;;;;;2.08;0.90;;;;;;;12.94;68.95;99440.38;5118072;28;20047;-46
2021/05/27 03:48:44;;;;;;;1.60;0.75;;;;;;;12.97;68.39;99432.38;5117500;28;20047;-46
2021/05/27 03:51:10;;;;;;;2.63;0.77;;;;;;;12.98;68.71;99433.22;5118276;28;20364;-46
2021/05/27 03:53:37;;;;;;;1.13;0.52;;;;;;;13.00;68.75;99439.25;5116824;28;20063;-46
2021/05/27 03:56:05;;;;;;;2.50;1.08;;;;;;;13.00;68.52;99437.50;5117299;28;20047;-46
2021/05/27 04:01:20;;;;;;;1.33;0.80;;;;;;;13.00;68.77;99452.41;5117098;28;20393;-46
2021/05/27 04:09:20;;;;;;;1.50;1.00;;;;;;;13.04;68.32;99465.38;5117208;28;20356;-46
2021/05/27 04:11:46;;;;;;;2.20;0.60;;;;;;;13.06;68.26;99467.94;5117609;28;20068;-46
2021/05/27 04:14:12;;;;;;;0.98;0.55;;;;;;;13.06;68.16;99481.06;5116862;28;20062;-46
2021/05/27 04:16:38;;;;;;;0.98;0.60;;;;;;;13.09;68.00;99473.91;5116112;28;20346;-46
2021/05/27 04:19:03;;;;;;;1.77;0.90;;;;;;;13.14;67.68;99479.00;5117022;28;20058;-46
2021/05/27 04:21:29;;;;;;;4.55;0.60;;;;;;;13.16;67.66;99485.06;5116721;28;20061;-46
2021/05/27 04:23:55;;;;;;;1.02;0.70;;;;;;;13.18;67.15;99483.22;5116951;28;20486;-46
2021/05/27 04:26:21;;;;;;;1.02;0.40;;;;;;;13.25;67.24;99478.59;5116743;28;20055;-46
2021/05/27 04:28:47;;;;;;;2.08;0.50;;;;;;;13.35;66.50;99484.34;5116868;28;20047;-46
2021/05/27 04:31:19;;;;;;;0.60;0.50;;;;;;;13.40;66.51;99487.63;5116891;28;20048;-46
2021/05/27 04:33:46;;;;;;;2.13;0.70;;;;;;;13.49;65.92;99493.38;5116012;28;20051;-46
2021/05/27 04:36:16;;;;;;;3.38;0.60;;;;;;;13.54;65.05;99493.16;5116502;28;20415;-47
2021/05/27 04:38:43;;;;;;;2.30;0.40;;;;;;;13.53;64.80;99499.34;5098576;28;20514;-46
2021/05/27 04:41:08;;;;;;;3.08;0.50;;;;;;;13.53;64.64;99496.72;5116424;28;20429;-46
2021/05/27 04:43:35;;;;;;;1.10;0.43;;;;;;;13.61;64.29;99496.41;5117033;28;20100;-46
2021/05/27 04:46:01;;;;;;;1.80;0.52;;;;;;;13.60;64.05;99500.81;5116727;28;20130;-46
2021/05/27 04:48:27;;;;;;;0.85;0.25;;;;;;;13.57;64.16;99501.78;5115801;28;20035;-46
2021/05/27 04:50:53;;;;;;;2.30;0.60;;;;;;;13.55;63.69;99508.03;5115930;28;20055;-46
2021/05/27 04:53:20;;;;;;;0.43;0.30;;;;;;;13.54;63.77;99508.94;5117207;28;20047;-46
2021/05/27 04:55:46;;;;;;;0.65;0.60;;;;;;;13.51;63.87;99507.28;5116287;28;20051;-46
2021/05/27 04:58:11;;;;;;;1.15;0.68;;;;;;;13.54;64.01;99511.59;5098767;28;20130;-46
2021/05/27 05:00:37;;;;;;;1.27;0.70;;;;;;;13.54;63.65;99516.84;5116553;28;20044;-46
2021/05/27 05:03:03;;;;;;;1.17;0.98;;;;;;;13.54;63.72;99517.69;5098725;28;20047;-46
2021/05/27 05:05:29;;;;;;;1.73;0.88;;;;;;;13.61;63.40;99517.44;5116491;28;20055;-46
2021/05/27 05:07:55;;;;;;;1.77;0.80;;;;;;;13.65;63.29;99521.66;5115608;28;20059;-46
2021/05/27 05:10:22;;;;;;;3.28;1.13;;;;;;;13.74;63.16;99523.91;5119109;28;20043;-46
2021/05/27 05:12:52;;;;;;;1.45;1.33;;;;;;;13.77;63.28;99523.75;5119669;28;20433;-46
2021/05/27 05:15:23;;;;;;;1.00;0.90;;;;;;;13.95;62.83;99523.00;5120445;28;20047;-46
2021/05/27 05:17:56;;;;;;;0.90;0.70;;;;;;;14.08;62.59;99523.31;5119874;28;20056;-46
2021/05/27 05:20:23;;;;;;;1.55;0.85;;;;;;;14.16;62.34;99525.59;5120125;28;20047;-46
2021/05/27 05:22:49;;;;;;;0.93;0.60;;;;;;;14.29;62.09;99521.50;5120118;28;20048;-46
2021/05/27 05:25:15;;;;;;;0.45;0.45;;;;;;;14.39;61.46;99530.69;5119182;28;20050;-46
2021/05/27 05:27:41;;;;;;;1.17;0.70;;;;;;;14.61;61.31;99529.75;5120239;28;20491;-46
2021/05/27 05:30:07;;;;;;;1.90;0.35;;;;;;;14.83;60.94;99535.75;5120199;28;20459;-46
2021/05/27 05:32:33;;;;;;;2.28;0.77;;;;;;;15.09;59.53;99542.44;5119992;28;20458;-46
2021/05/27 05:35:00;;;;;;;0.88;0.50;;;;;;;15.23;59.29;99544.41;5119789;28;20043;-46
2021/05/27 05:37:26;;;;;;;1.20;0.70;;;;;;;15.52;58.34;99544.75;5118839;28;20468;-46
2021/05/27 05:39:52;;;;;;;1.95;0.77;;;;;;;15.84;57.76;99554.59;5119333;28;20078;-47
2021/05/27 05:42:18;;;;;;;0.90;0.70;;;;;;;16.26;57.51;99549.81;5119132;28;20381;-46
2021/05/27 05:44:44;;;;;;;1.27;0.80;;;;;;;16.65;55.91;99554.78;5118659;28;20386;-46
2021/05/27 05:47:09;;;;;;;1.10;0.80;;;;;;;16.92;54.83;99551.59;5119887;28;20047;-46
2021/05/27 05:49:35;;;;;;;0.88;0.35;;;;;;;16.96;53.76;99555.75;5119834;28;20130;-46
2021/05/27 05:52:01;;;;;;;1.60;0.57;;;;;;;16.90;53.55;99554.34;5120252;28;20331;-46
2021/05/27 05:54:27;;;;;;;1.48;0.40;;;;;;;16.86;53.65;99549.28;5119368;28;20185;-47
2021/05/27 05:56:53;;;;;;;1.45;1.00;;;;;;;16.78;53.50;99555.00;5118672;28;20134;-46
2021/05/27 05:59:18;;;;;;;1.95;0.98;;;;;;;16.59;53.90;99560.41;5119305;28;20112;-46
2021/05/27 06:01:44;;;;;;;0.73;0.60;;;;;;;16.55;54.00;99566.78;5119354;28;20353;-46
2021/05/27 06:04:11;;;;;;;0.90;0.63;;;;;;;16.57;54.82;99565.78;5118710;28;20139;-46
2021/05/27 06:07:00;;;;;;;0.77;0.68;;;;;;;16.56;54.72;99576.41;5116532;28;20081;-47
2021/05/27 06:09:27;;;;;;;0.85;0.60;;;;;;;16.63;54.24;99575.16;5118184;28;20071;-47
2021/05/27 06:11:52;;;;;;;0.77;0.70;;;;;;;16.68;54.02;99574.91;5119393;28;20430;-47
2021/05/27 06:14:19;;;;;;;1.13;1.00;;;;;;;16.63;53.96;99575.16;5119391;28;20051;-47
2021/05/27 06:16:44;;;;;;;4.32;1.60;;;;;;;16.63;53.57;99575.16;5119499;28;20043;-47
2021/05/27 06:19:10;;;;;;;1.60;0.73;;;;;;;16.71;52.85;99577.41;5119283;28;20066;-47
2021/05/27 06:22:09;;;;;;;2.15;1.25;;;;;;;16.86;53.78;99578.38;5105708;28;20055;-47
2021/05/27 06:25:00;;;;;;;0.98;0.80;;;;;;;17.01;52.94;99562.53;5117783;28;20044;-47
2021/05/27 06:27:26;;;;;;;1.38;0.70;;;;;;;17.18;52.69;99566.88;5119457;28;20466;-46
2021/05/27 06:29:51;;;;;;;1.80;1.17;;;;;;;17.35;52.92;99571.19;5118839;28;20053;-47
2021/05/27 06:32:17;;;;;;;1.10;1.00;;;;;;;17.59;52.22;99566.31;5119324;28;20318;-47
2021/05/27 06:34:44;;;;;;;1.00;0.65;;;;;;;17.77;51.94;99575.00;5116936;28;20043;-47
2021/05/27 06:37:09;;;;;;;1.35;1.25;;;;;;;17.96;50.70;99574.78;5115834;28;20079;-47
2021/05/27 06:39:35;;;;;;;3.22;0.93;;;;;;;18.02;50.33;99578.88;5117240;28;20035;-47
2021/05/27 06:42:01;;;;;;;2.13;0.90;;;;;;;18.30;50.38;99570.97;5116956;27;20132;-47
2021/05/27 06:44:27;;;;;;;2.05;1.45;;;;;;;18.40;48.44;99571.28;5116890;28;20035;-47
2021/05/27 06:46:52;;;;;;;2.08;1.25;;;;;;;18.46;48.53;99576.22;5117278;28;20039;-47
2021/05/27 06:49:18;;;;;;;1.90;0.93;;;;;;;18.48;48.58;99576.94;5117921;28;20096;-47
2021/05/27 06:51:45;;;;;;;1.67;0.98;;;;;;;18.60;48.13;99584.16;5119003;28;20074;-47
2021/05/27 06:54:11;;;;;;;1.92;1.30;;;;;;;18.64;47.97;99582.16;5119128;28;20039;-47
2021/05/27 06:56:37;;;;;;;3.42;1.10;;;;;;;18.65;47.69;99590.03;5118248;28;20085;-47
2021/05/27 06:59:03;;;;;;;2.05;1.13;;;;;;;18.78;48.24;99579.53;5118781;28;20043;-47
2021/05/27 07:01:28;;;;;;;1.27;1.00;;;;;;;18.86;47.50;99587.03;5118766;28;20042;-47
2021/05/27 07:03:54;;;;;;;1.48;1.23;;;;;;;19.08;47.81;99583.88;5117587;28;20049;-47
2021/05/27 07:06:20;;;;;;;1.00;0.80;;;;;;;19.37;48.28;99582.00;5118404;28;20031;-47
2021/05/27 07:08:45;;;;;;;2.65;1.23;;;;;;;19.73;47.54;99578.75;5118358;28;20054;-47
2021/05/27 07:11:11;;;;;;;1.83;1.33;;;;;;;19.91;45.99;99576.66;5118195;28;20058;-47
2021/05/27 07:13:37;;;;;;;2.90;1.17;;;;;;;20.25;44.79;99582.38;5118103;28;20352;-47
2021/05/27 07:16:02;;;;;;;2.15;1.13;;;;;;;20.39;43.70;99590.25;5117840;28;20039;-47
2021/05/27 07:18:28;;;;;;;5.20;1.30;;;;;;;20.71;43.79;99574.72;5116864;28;20430;-47
2021/05/27 07:20:53;;;;;;;2.92;1.08;;;;;;;21.00;42.96;99583.28;5116314;28;20409;-47
2021/05/27 07:23:19;;;;;;;3.72;1.30;;;;;;;21.13;41.07;99583.28;5116842;28;20040;-47
2021/05/27 07:25:44;;;;;;;2.28;1.15;;;;;;;21.12;40.72;99594.00;5117024;28;20038;-47
2021/05/27 07:28:10;;;;;;;2.95;0.88;;;;;;;21.10;40.56;99588.81;5117614;28;20043;-47
2021/05/27 07:30:35;;;;;;;5.55;2.05;;;;;;;21.26;40.07;99585.91;5117059;28;20418;-47
2021/05/27 07:33:01;;;;;;;1.80;1.10;;;;;;;21.59;40.43;99585.25;5117788;28;20108;-47
2021/05/27 07:35:27;;;;;;;2.20;0.77;;;;;;;22.13;40.03;99579.41;5117793;28;20089;-47
2021/05/27 07:37:53;;;;;;;0.82;0.57;;;;;;;22.59;39.19;99573.19;5117357;28;20067;-47
2021/05/27 07:40:19;;;;;;;2.92;1.02;;;;;;;22.81;37.83;99583.03;5117701;28;20035;-47
2021/05/27 07:42:44;;;;;;;1.77;1.02;;;;;;;22.85;38.07;99580.97;5117419;28;20049;-47
2021/05/27 07:45:10;;;;;;;2.05;0.90;;;;;;;23.16;37.51;99582.03;5117852;28;20360;-47
2021/05/27 07:47:35;;;;;;;2.35;0.90;;;;;;;23.38;36.14;99582.97;5117616;28;20074;-47
2021/05/27 07:50:02;;;;;;;2.15;0.95;;;;;;;23.76;36.29;99582.53;5117275;28;20043;-48
2021/05/27 07:52:28;;;;;;;2.85;1.38;;;;;;;23.89;34.79;99571.66;5117792;28;20031;-48
2021/05/27 07:54:54;;;;;;;1.27;1.00;;;;;;;23.76;35.35;99577.19;5117098;28;20050;-48
2021/05/27 07:57:20;;;;;;;2.50;1.08;;;;;;;24.03;36.03;99580.19;5117442;28;20039;-48
2021/05/27 07:59:45;;;;;;;2.47;1.35;;;;;;;24.25;35.65;99575.69;5117466;28;20050;-48
2021/05/27 08:02:11;;;;;;;2.80;0.80;;;;;;;24.53;34.92;99586.72;5118039;28;20099;-48
2021/05/27 08:04:37;;;;;;;1.58;0.80;;;;;;;24.65;34.22;99585.66;5116401;28;20357;-48
2021/05/27 08:07:03;;;;;;;1.20;0.90;;;;;;;24.78;34.12;99582.75;5116357;28;20047;-48
2021/05/27 08:09:29;;;;;;;3.42;0.90;;;;;;;24.76;33.42;99579.38;5116250;28;20476;-48
2021/05/27 08:11:54;;;;;;;2.10;0.98;;;;;;;24.70;34.30;99589.66;5115928;28;20051;-48
2021/05/27 08:14:20;;;;;;;1.83;1.50;;;;;;;24.76;32.69;99588.25;5116235;28;20116;-48
2021/05/27 08:16:47;;;;;;;3.05;0.80;;;;;;;24.64;33.49;99592.00;5116072;28;20066;-48
2021/05/27 08:19:13;;;;;;;1.65;0.85;;;;;;;24.68;33.20;99586.25;5117031;28;20044;-47
2021/05/27 08:21:38;;;;;;;1.13;1.00;;;;;;;24.67;32.39;99599.78;5116695;28;20043;-48
2021/05/27 08:24:04;;;;;;;2.28;0.70;;;;;;;24.69;31.87;99579.91;5116097;28;20051;-48
2021/05/27 08:26:30;;;;;;;1.85;0.80;;;;;;;24.47;31.98;99597.00;5116613;28;20044;-48
2021/05/27 08:28:56;;;;;;;1.40;1.05;;;;;;;24.23;32.83;99602.56;5115737;28;20123;-47
2021/05/27 08:31:22;;;;;;;1.15;0.70;;;;;;;24.19;34.31;99602.97;5116878;28;20052;-48
2021/05/27 08:33:51;;;;;;;4.07;1.65;;;;;;;24.24;33.31;99601.63;5116549;28;20430;-48
2021/05/27 08:36:17;;;;;;;2.45;0.82;;;;;;;24.15;32.55;99605.06;5116606;28;20054;-48
2021/05/27 08:38:43;;;;;;;2.53;1.52;;;;;;;23.87;33.47;99609.19;5099030;28;20048;-47
2021/05/27 08:41:09;;;;;;;4.07;0.95;;;;;;;23.71;34.30;99606.09;5116737;28;20331;-48
2021/05/27 08:43:35;;;;;;;1.42;0.70;;;;;;;23.51;34.61;99602.38;5116412;28;20051;-48
2021/05/27 08:46:02;;;;;;;1.83;0.80;;;;;;;23.49;35.50;99596.28;5116037;28;20058;-48
2021/05/27 08:48:29;;;;;;;0.93;0.70;;;;;;;23.35;34.72;99564.53;5117171;28;20043;-48
2021/05/27 08:50:55;;;;;;;2.05;0.90;;;;;;;23.41;34.63;99601.44;5116703;28;20039;-47
2021/05/27 08:53:21;;;;;;;1.00;1.00;;;;;;;23.19;34.28;99611.19;5116646;28;20058;-48
2021/05/27 08:55:47;;;;;;;1.05;0.60;;;;;;;22.72;35.24;99614.94;5115663;28;20070;-47
2021/05/27 08:58:16;;;;;;;1.25;0.73;;;;;;;22.38;36.39;99609.53;5116365;28;20477;-47
2021/05/27 09:00:42;;;;;;;1.67;1.08;;;;;;;22.24;36.82;99615.94;5115708;28;20100;-47
2021/05/27 09:03:09;;;;;;;1.05;0.95;;;;;;;22.06;36.68;99620.81;5116318;28;20449;-47
2021/05/27 09:05:37;;;;;;;2.13;0.85;;;;;;;21.75;36.37;99624.94;5116807;28;20040;-47
2021/05/27 09:08:03;;;;;;;2.05;0.60;;;;;;;21.43;37.23;99617.50;5116173;28;20044;-47
2021/05/27 09:10:46;;;;;;;1.52;0.88;;;;;;;21.26;37.86;99619.66;5115629;28;20036;-47
2021/05/27 09:13:13;;;;;;;4.68;1.33;;;;;;;21.14;38.27;99621.38;5115558;28;20122;-47
2021/05/27 09:15:39;;;;;;;1.83;0.82;;;;;;;20.88;38.71;99625.91;5116387;28;20157;-53
2021/05/27 09:18:05;;;;;;;1.13;0.80;;;;;;;20.87;39.67;99625.06;5116679;28;20047;-53
2021/05/27 09:20:31;;;;;;;1.20;1.00;;;;;;;20.95;39.43;99621.84;5116100;28;20066;-53
2021/05/27 09:23:10;;;;;;;2.05;1.00;;;;;;;21.07;38.93;99618.31;5116400;28;20043;-53
2021/05/27 09:25:36;;;;;;;2.25;1.33;;;;;;;21.21;39.33;99619.97;5116334;28;20131;-54
2021/05/27 09:28:02;;;;;;;1.38;0.90;;;;;;;21.33;38.56;99628.91;5115465;28;20047;-54
2021/05/27 09:30:28;;;;;;;2.67;1.00;;;;;;;21.23;37.15;99631.38;5116213;28;20338;-53
2021/05/27 09:32:54;;;;;;;2.47;0.98;;;;;;;21.09;37.79;99627.06;5116341;28;20058;-53
2021/05/27 09:35:20;;;;;;;2.00;1.00;;;;;;;20.87;38.70;99629.53;5115679;28;20409;-53
2021/05/27 09:37:53;;;;;;;1.52;1.20;;;;;;;20.75;38.54;99626.75;5115454;28;20138;-53
2021/05/27 09:40:35;;;;;;;0.70;0.50;;;;;;;20.76;39.04;99628.44;5116789;28;20093;-53
2021/05/27 09:43:01;;;;;;;4.25;0.68;;;;;;;20.80;39.53;99631.78;5116225;28;20411;-53
2021/05/27 09:45:28;;;;;;;3.10;0.60;;;;;;;20.75;39.51;99626.75;5115924;28;20048;-53
2021/05/27 09:47:53;;;;;;;1.05;0.40;;;;;;;20.74;39.18;99630.38;5116261;28;20058;-53
2021/05/27 09:50:30;;;;;;;1.05;0.65;;;;;;;20.72;39.44;99629.63;5114935;28;20116;-53
2021/05/27 09:52:56;;;;;;;3.00;1.05;;;;;;;20.80;38.85;99625.59;5115698;28;20331;-53
2021/05/27 09:55:22;;;;;;;0.85;0.45;;;;;;;21.08;39.40;99630.66;5114737;28;20051;-53
2021/05/27 09:57:49;;;;;;;1.75;0.93;;;;;;;21.43;38.65;99619.31;5119721;28;20047;-53
2021/05/27 10:00:21;;;;;;;2.95;0.70;;;;;;;21.60;38.47;99615.41;5118837;28;20342;-54
2021/05/27 10:02:47;;;;;;;2.03;1.17;;;;;;;21.58;38.35;99618.19;5120384;27;20430;-53
2021/05/27 10:05:14;;;;;;;12.82;9.13;;;;;;;21.91;37.77;99616.66;5119568;28;20058;-53
2021/05/27 10:07:44;;;;;;;8.10;6.30;;;;;;;22.17;36.73;99617.38;5119833;28;20067;-53
2021/05/27 10:10:12;;;;;;;13.10;10.90;;;;;;;22.28;37.40;99619.22;5118665;28;20059;-54
2021/05/27 10:12:48;;;;;;;16.23;13.70;;;;;;;22.43;36.21;99620.72;5118342;28;20036;-54
2021/05/27 10:15:16;;;;;;;8.73;7.05;;;;;;;22.49;37.30;99622.91;5119080;28;20040;-54
2021/05/27 10:17:42;;;;;;;6.40;5.03;;;;;;;22.71;37.83;99624.75;5119105;28;20062;-54
2021/05/27 10:20:09;;;;;;;1.70;1.27;;;;;;;23.02;37.98;99631.22;5119271;27;20051;-54
2021/05/27 10:22:35;;;;;;;1.25;1.13;;;;;;;23.24;36.17;99629.53;5119021;27;20349;-54
2021/05/27 10:25:08;;;;;;;1.63;0.60;;;;;;;23.06;35.41;99619.31;5119190;28;20130;-54
2021/05/27 10:27:34;;;;;;;1.50;0.70;;;;;;;22.75;35.48;99625.34;5101194;28;20063;-54
2021/05/27 10:30:02;;;;;;;4.03;0.63;;;;;;;22.46;36.38;99625.81;5117983;28;20040;-54
2021/05/27 10:32:28;;;;;;;0.55;0.47;;;;;;;22.13;36.33;99630.06;5118806;28;20039;-54
2021/05/27 10:34:55;;;;;;;0.75;0.60;;;;;;;22.06;35.86;99627.97;5117854;28;20042;-53
2021/05/27 10:37:33;;;;;;;0.80;0.55;;;;;;;21.83;37.18;99640.34;5117696;28;20056;-53
2021/05/27 10:39:59;;;;;;;1.52;0.80;;;;;;;21.66;37.98;99639.78;5118711;28;20345;-53
2021/05/27 10:43:11;;;;;;;1.33;0.38;;;;;;;21.63;37.83;99650.66;5119112;28;20051;-53
2021/05/27 10:46:03;;;;;;;1.23;0.45;;;;;;;21.51;37.28;99653.38;5118451;28;20047;-53
2021/05/27 10:48:38;;;;;;;;;;;;;;;21.13;38.16;99651.66;5119522;28;20039;-53
2021/05/27 10:51:10;;;;;;;0.90;0.50;;;;;;;21.20;38.40;99648.44;5118728;28;20006;-53
2021/05/27 10:53:43;;;;;;;2.38;0.50;;;;;;;21.33;38.46;99645.75;5118975;28;20114;-53
2021/05/27 10:56:11;;;;;;;0.47;0.40;;;;;;;21.33;38.76;99653.72;5118497;28;20055;-53
2021/05/27 10:58:49;;;;;;;0.88;0.50;;;;;;;21.40;38.42;99649.69;5118868;28;20108;-54
2021/05/27 11:01:16;;;;;;;0.90;0.70;;;;;;;21.47;37.88;99650.09;5118411;28;20046;-53
2021/05/27 11:03:53;;;;;;;0.95;0.43;;;;;;;21.45;36.86;99650.22;5117580;28;20055;-53
2021/05/27 11:06:22;;;;;;;3.03;0.40;;;;;;;21.41;37.46;99647.88;5118059;28;20047;-53
2021/05/27 11:11:44;;;;;;;2.33;0.40;;;;;;;21.80;37.28;99644.09;5118339;28;20135;-53
2021/05/27 11:14:34;;;;;;;1.25;0.43;;;;;;;22.04;37.24;99653.91;5118563;28;20044;-53
2021/05/27 11:17:11;;;;;;;2.60;0.70;;;;;;;21.97;36.25;99658.84;5117067;28;20437;-53
2021/05/27 11:22:51;;;;;;;0.45;0.40;;;;;;;21.78;36.17;99648.72;5117935;28;20051;-53
2021/05/27 11:25:16;;;;;;;0.73;0.55;;;;;;;21.68;37.70;99650.34;5117681;28;20059;-53
2021/05/27 11:28:20;;;;;;;1.60;0.60;;;;;;;21.66;37.42;99647.78;5118113;28;20043;-53
2021/05/27 11:30:48;;;;;;;1.20;0.50;;;;;;;21.56;38.07;99656.56;5117624;28;20043;-54
2021/05/27 11:33:21;;;;;;;0.90;0.52;;;;;;;21.62;38.22;99651.66;5117602;28;20039;-53
2021/05/27 11:35:49;;;;;;;3.20;0.60;;;;;;;21.62;38.42;99637.47;5117348;28;20040;-53
2021/05/27 11:38:19;;;;;;;1.23;0.52;;;;;;;21.97;39.16;99652.66;5117983;28;20047;-54
2021/05/27 11:40:50;;;;;;;1.00;0.60;;;;;;;22.20;38.64;99650.94;5116813;28;20396;-54
2021/05/27 11:43:17;;;;;;;2.87;1.20;;;;;;;22.11;37.13;99645.31;5118236;28;20112;-54
2021/05/27 11:45:44;;;;;;;0.60;0.40;;;;;;;22.16;36.92;99647.66;5117290;28;20060;-54
2021/05/27 11:48:28;;;;;;;2.70;1.58;;;;;;;22.22;36.88;99636.53;5117241;28;20056;-54
2021/05/27 11:51:04;;;;;;;1.10;0.70;;;;;;;22.47;36.40;99640.00;5117389;28;20047;-54
2021/05/27 11:53:54;;;;;;;0.77;0.60;;;;;;;22.48;35.78;99637.22;5116391;28;20062;-53
2021/05/27 11:56:39;;;;;;;3.00;0.68;;;;;;;22.46;36.16;99647.16;5117384;28;20051;-54